createdAt,value
2022-10-10T00:01:24.358Z,82.40
2022-10-10T00:03:53.255Z,82.20
2022-10-10T00:06:21.470Z,82.60
2022-10-10T00:08:49.614Z,82.00
2022-10-10T00:11:20.319Z,82.80
2022-10-10T00:13:48.976Z,83.10
2022-10-10T00:16:17.358Z,82.90
2022-10-10T00:18:45.325Z,83.20
2022-10-10T00:21:13.148Z,82.70
2022-10-10T00:23:41.090Z,82.30
2022-10-10T00:26:09.791Z,82.70
2022-10-10T00:28:38.811Z,82.90
2022-10-10T00:31:08.813Z,83.00
2022-10-10T00:33:37.705Z,83.20
2022-10-10T00:36:06.043Z,83.40
2022-10-10T00:38:33.727Z,83.20
2022-10-10T00:41:01.469Z,83.60
2022-10-10T00:43:29.805Z,83.60
2022-10-10T00:45:57.558Z,84.10
2022-10-10T00:48:41.408Z,83.90
2022-10-10T00:51:14.651Z,84.00
2022-10-10T00:53:56.337Z,84.00
2022-10-10T00:56:28.593Z,84.00
2022-10-10T00:59:00.368Z,84.10
2022-10-10T01:01:28.372Z,84.20
2022-10-10T01:04:01.221Z,84.10
2022-10-10T01:06:29.478Z,84.00
2022-10-10T01:08:57.439Z,84.20
2022-10-10T01:11:48.095Z,84.10
2022-10-10T01:14:49.842Z,84.30
2022-10-10T01:17:35.031Z,84.50
2022-10-10T01:20:50.564Z,84.30
2022-10-10T01:23:33.687Z,84.00
2022-10-10T01:26:19.438Z,84.60
2022-10-10T01:29:23.203Z,84.90
2022-10-10T01:31:54.697Z,84.80
2022-10-10T01:34:40.874Z,84.90
2022-10-10T01:37:20.519Z,84.70
2022-10-10T01:40:04.479Z,84.90
2022-10-10T01:42:34.847Z,84.80
2022-10-10T01:45:02.236Z,85.30
2022-10-10T01:47:29.736Z,85.00
2022-10-10T01:50:06.817Z,85.00
2022-10-10T01:53:09.655Z,85.40
2022-10-10T01:55:59.969Z,84.60
2022-10-10T01:59:03.537Z,84.40
2022-10-10T02:01:43.583Z,84.10
2022-10-10T02:04:27.689Z,84.20
2022-10-10T02:07:30.921Z,84.20
2022-10-10T02:10:02.050Z,84.40
2022-10-10T02:12:31.187Z,84.90
2022-10-10T02:15:07.489Z,84.80
2022-10-10T02:17:38.235Z,85.30
2022-10-10T02:20:07.702Z,85.40
2022-10-10T02:22:36.995Z,85.30
2022-10-10T02:25:05.384Z,85.40
2022-10-10T02:27:43.638Z,85.50
2022-10-10T02:30:11.975Z,86.00
2022-10-10T02:32:50.702Z,85.70
2022-10-10T02:35:23.904Z,85.60
2022-10-10T02:37:53.007Z,85.60
2022-10-10T02:40:28.231Z,85.50
2022-10-10T02:42:57.226Z,85.30
2022-10-10T02:45:25.696Z,85.20
2022-10-10T02:47:54.539Z,85.00
2022-10-10T02:50:23.150Z,84.60
2022-10-10T02:52:51.164Z,84.90
2022-10-10T02:55:18.678Z,84.80
2022-10-10T02:57:46.002Z,84.80
2022-10-10T03:00:14.824Z,84.90
2022-10-10T03:02:42.531Z,85.00
2022-10-10T03:05:10.435Z,85.00
2022-10-10T03:07:38.002Z,84.90
2022-10-10T03:10:07.513Z,85.10
2022-10-10T03:12:35.666Z,85.50
2022-10-10T03:15:06.909Z,85.60
2022-10-10T03:17:37.874Z,85.80
2022-10-10T03:20:06.025Z,85.50
2022-10-10T03:22:33.459Z,85.40
2022-10-10T03:25:00.769Z,85.40
2022-10-10T03:27:28.164Z,85.70
2022-10-10T03:29:55.564Z,85.40
2022-10-10T03:32:22.930Z,85.30
2022-10-10T03:34:50.396Z,85.20
2022-10-10T03:37:17.783Z,85.30
2022-10-10T03:39:45.161Z,85.10
2022-10-10T03:42:12.518Z,85.20
2022-10-10T03:44:39.837Z,85.40
2022-10-10T03:47:07.442Z,85.60
2022-10-10T03:49:35.210Z,85.60
2022-10-10T03:52:02.554Z,85.90
2022-10-10T03:54:29.915Z,85.80
2022-10-10T03:56:57.250Z,85.90
2022-10-10T03:59:24.707Z,85.60
2022-10-10T04:01:52.002Z,85.70
2022-10-10T04:04:19.340Z,86.00
2022-10-10T04:06:46.931Z,85.80
2022-10-10T04:09:14.256Z,85.40
2022-10-10T04:11:41.691Z,86.40
2022-10-10T04:14:09.091Z,86.00
2022-10-10T04:16:36.458Z,86.00
2022-10-10T04:19:03.744Z,86.10
2022-10-10T04:21:31.037Z,86.50
2022-10-10T04:23:58.681Z,86.60
2022-10-10T04:26:26.150Z,86.70
2022-10-10T04:28:53.441Z,86.80
2022-10-10T04:31:21.267Z,86.60
2022-10-10T04:33:48.589Z,87.60
2022-10-10T04:36:16.049Z,86.60
2022-10-10T04:38:43.655Z,86.60
2022-10-10T04:41:11.326Z,86.50
2022-10-10T04:43:38.707Z,86.40
2022-10-10T04:46:06.173Z,86.60
2022-10-10T04:48:34.073Z,86.60
2022-10-10T04:51:01.397Z,86.90
2022-10-10T04:53:28.698Z,86.80
2022-10-10T04:55:55.983Z,86.90
2022-10-10T04:58:23.426Z,87.00
2022-10-10T05:00:54.969Z,86.90
2022-10-10T05:03:25.996Z,87.50
2022-10-10T05:05:53.706Z,86.80
2022-10-10T05:08:21.262Z,86.80
2022-10-10T05:10:48.651Z,87.10
2022-10-10T05:13:16.613Z,86.80
2022-10-10T05:15:44.857Z,86.80
2022-10-10T05:18:12.447Z,86.50
2022-10-10T05:20:41.611Z,86.60
2022-10-10T05:23:09.058Z,86.80
2022-10-10T05:25:36.362Z,86.90
2022-10-10T05:28:03.633Z,86.90
2022-10-10T05:30:30.921Z,87.20
2022-10-10T05:32:58.397Z,87.40
2022-10-10T05:35:25.698Z,87.30
2022-10-10T05:37:53.164Z,87.70
2022-10-10T05:40:20.605Z,87.90
2022-10-10T05:42:48.147Z,88.00
2022-10-10T05:45:15.670Z,88.20
2022-10-10T05:47:42.949Z,88.20
2022-10-10T05:50:33.747Z,88.20
2022-10-10T05:53:01.236Z,88.80
2022-10-10T05:55:28.603Z,88.20
2022-10-10T06:51:44.865Z,91.40
2022-10-10T06:54:52.550Z,91.60
2022-10-10T06:57:20.751Z,91.90
2022-10-10T07:03:02.863Z,92.20
2022-10-10T07:15:07.521Z,93.20
2022-10-10T07:17:35.189Z,93.30
2022-10-10T08:16:50.063Z,93.30
2022-10-10T08:19:17.973Z,93.10
2022-10-10T08:21:45.582Z,92.40
2022-10-10T08:37:03.904Z,90.20
2022-10-10T08:39:32.301Z,90.10
2022-10-10T08:42:02.561Z,90.00
2022-10-10T08:44:59.196Z,89.90
2022-10-10T09:02:50.089Z,86.40
2022-10-10T09:15:06.893Z,83.70
2022-10-10T09:17:52.890Z,82.00
2022-10-10T09:20:55.879Z,82.20
2022-10-10T09:23:40.905Z,81.80
2022-10-10T09:26:11.830Z,80.20
2022-10-10T09:29:03.175Z,78.10
2022-10-10T09:31:39.881Z,77.60
2022-10-10T09:34:30.775Z,76.70
2022-10-10T09:37:02.184Z,76.90
2022-10-10T09:39:43.906Z,75.40
2022-10-10T09:42:13.762Z,74.80
2022-10-10T09:44:43.209Z,75.40
2022-10-10T09:47:14.035Z,74.80
2022-10-10T09:49:42.962Z,75.10
2022-10-10T09:52:24.330Z,74.40
2022-10-10T09:55:05.561Z,75.40
2022-10-10T09:57:39.039Z,74.20
2022-10-10T10:00:27.560Z,74.60
2022-10-10T10:03:10.246Z,75.20
2022-10-10T10:05:37.955Z,75.10
2022-10-10T10:08:06.014Z,74.60
2022-10-10T10:10:35.521Z,75.60
2022-10-10T10:13:02.951Z,75.20
2022-10-10T10:15:32.110Z,75.30
2022-10-10T10:18:19.326Z,76.30
2022-10-10T10:20:49.983Z,76.40
2022-10-10T10:23:31.094Z,75.20
2022-10-10T10:26:06.529Z,76.20
2022-10-10T10:28:41.089Z,75.20
2022-10-10T10:31:30.964Z,76.00
2022-10-10T10:34:28.941Z,76.20
2022-10-10T10:37:17.367Z,76.90
2022-10-10T10:39:57.603Z,77.00
2022-10-10T10:42:54.605Z,76.80
2022-10-10T10:45:37.198Z,77.00
2022-10-10T10:48:44.689Z,78.10
2022-10-10T10:51:34.298Z,78.40
2022-10-10T10:54:13.690Z,78.20
2022-10-10T10:57:11.284Z,79.20
2022-10-10T11:00:25.737Z,78.80
2022-10-10T11:05:16.629Z,79.60
2022-10-10T11:07:13.736Z,80.00
2022-10-10T11:09:50.385Z,80.50
2022-10-10T11:12:47.811Z,82.00
2022-10-10T11:16:05.455Z,81.90
2022-10-10T11:18:41.296Z,82.30
2022-10-10T11:21:14.869Z,82.10
2022-10-10T11:23:57.610Z,82.70
2022-10-10T11:26:31.710Z,82.90
2022-10-10T11:29:24.411Z,82.40
2022-10-10T11:31:55.637Z,82.40
2022-10-10T11:34:38.325Z,83.00
2022-10-10T11:37:14.098Z,82.90
2022-10-10T11:39:55.750Z,83.00
2022-10-10T11:42:45.957Z,82.50
2022-10-10T11:45:25.810Z,83.10
2022-10-10T11:47:57.068Z,83.20
2022-10-10T11:50:29.361Z,82.60
2022-10-10T11:53:12.952Z,83.20
2022-10-10T11:55:47.485Z,84.10
2022-10-10T11:58:33.122Z,83.10
2022-10-10T12:01:25.545Z,83.40
2022-10-10T12:03:53.258Z,82.90
2022-10-10T12:06:34.236Z,83.20
2022-10-10T12:09:23.613Z,83.10
2022-10-10T12:11:58.201Z,82.40
2022-10-10T12:14:30.066Z,82.80
2022-10-10T12:16:58.537Z,83.10
2022-10-10T12:19:28.585Z,82.80
2022-10-10T12:22:12.057Z,82.80
2022-10-10T12:25:08.797Z,82.40
2022-10-10T12:27:47.920Z,82.80
2022-10-10T12:30:19.193Z,82.60
2022-10-10T12:32:47.869Z,82.20
2022-10-10T12:35:27.527Z,82.90
2022-10-10T12:38:21.591Z,82.60
2022-10-10T12:40:58.275Z,82.40
2022-10-10T12:43:45.528Z,81.70
2022-10-10T12:46:32.906Z,82.20
2022-10-10T12:49:25.558Z,82.80
2022-10-10T12:52:11.781Z,81.60
2022-10-10T12:54:43.422Z,81.40
2022-10-10T12:57:32.222Z,82.10
2022-10-10T13:00:15.358Z,81.50
2022-10-10T13:02:48.086Z,82.10
2022-10-10T13:05:19.916Z,81.40
2022-10-10T13:07:49.712Z,82.50
2022-10-10T13:10:24.859Z,81.80
2022-10-10T13:13:18.567Z,82.50
2022-10-10T13:16:04.583Z,81.90
2022-10-10T13:18:44.094Z,82.80
2022-10-10T13:36:57.893Z,82.00
2022-10-10T13:39:26.597Z,82.30
2022-10-10T13:41:55.875Z,82.10
2022-10-10T13:44:30.445Z,81.40
2022-10-10T13:46:58.378Z,81.50
2022-10-10T13:49:30.106Z,80.90
2022-10-10T13:52:28.500Z,81.90
2022-10-10T13:55:25.098Z,81.20
2022-10-10T13:58:01.480Z,81.50
2022-10-10T14:00:33.551Z,81.20
2022-10-10T14:03:01.042Z,82.20
2022-10-10T14:05:31.489Z,80.90
2022-10-10T14:07:59.603Z,80.80
2022-10-10T14:10:33.666Z,80.60
2022-10-10T14:13:01.362Z,80.50
2022-10-10T14:15:37.082Z,80.80
2022-10-10T14:18:19.493Z,80.70
2022-10-10T14:20:48.240Z,80.60
2022-10-10T14:23:17.178Z,80.50
2022-10-10T14:25:47.913Z,80.20
2022-10-10T14:28:25.333Z,81.00
2022-10-10T14:30:55.131Z,80.10
2022-10-10T14:33:22.749Z,79.60
2022-10-10T14:35:51.730Z,79.70
2022-10-10T14:38:19.216Z,80.30
2022-10-10T14:40:49.362Z,80.40
2022-10-10T14:43:18.347Z,80.60
2022-10-10T14:45:46.074Z,81.40
2022-10-10T14:48:13.357Z,81.10
2022-10-10T14:50:44.262Z,81.20
2022-10-10T14:53:12.138Z,81.00
2022-10-10T14:55:43.552Z,81.70
2022-10-10T14:58:20.143Z,81.50
2022-10-10T15:00:48.285Z,81.60
2022-10-10T15:03:15.951Z,82.20
2022-10-10T15:05:43.533Z,81.70
2022-10-10T15:08:14.380Z,81.60
2022-10-10T15:10:42.918Z,82.10
2022-10-10T15:13:12.211Z,81.90
2022-10-10T15:15:39.767Z,81.80
2022-10-10T15:18:26.697Z,81.70
2022-10-10T15:20:55.389Z,81.70
2022-10-10T15:23:22.725Z,82.20
2022-10-10T15:25:50.133Z,82.20
2022-10-10T15:28:17.595Z,81.90
2022-10-10T15:30:45.986Z,82.20
2022-10-10T15:33:13.287Z,82.10
2022-10-10T15:36:07.423Z,82.50
2022-10-10T15:38:29.633Z,82.40
2022-10-10T15:41:02.820Z,82.40
2022-10-10T15:43:30.750Z,82.50
2022-10-10T15:46:00.829Z,82.60
2022-10-10T15:48:28.286Z,82.60
2022-10-10T15:50:56.018Z,82.60
2022-10-10T15:53:24.789Z,82.90
2022-10-10T15:55:52.154Z,82.80
2022-10-10T15:58:19.558Z,82.80
2022-10-10T16:00:46.883Z,83.00
2022-10-10T16:03:14.471Z,83.30
2022-10-10T16:05:50.721Z,83.60
2022-10-10T16:08:20.056Z,83.00
2022-10-10T16:19:50.648Z,83.90
2022-10-10T16:22:17.895Z,84.60
2022-10-10T16:24:58.290Z,85.00
2022-10-10T16:27:34.778Z,85.20
2022-10-10T16:30:02.132Z,85.40
2022-10-10T16:32:29.510Z,85.50
2022-10-10T16:34:56.711Z,85.60
2022-10-10T16:37:23.974Z,86.30
2022-10-10T16:39:51.330Z,86.60
2022-10-10T16:42:18.706Z,86.90
2022-10-10T16:44:46.092Z,87.00
2022-10-10T16:47:14.514Z,87.40
2022-10-10T16:49:41.807Z,87.10
2022-10-10T16:52:09.139Z,87.10
2022-10-10T16:54:36.821Z,87.30
2022-10-10T16:57:04.144Z,87.20
2022-10-10T16:59:32.389Z,87.10
2022-10-10T17:01:59.675Z,87.20
2022-10-10T17:04:27.058Z,87.40
2022-10-10T17:06:54.479Z,87.40
2022-10-10T17:09:22.827Z,87.60
2022-10-10T17:11:51.491Z,87.50
2022-10-10T17:14:19.395Z,87.70
2022-10-10T17:17:10.941Z,87.60
2022-10-10T17:19:34.319Z,87.90
2022-10-10T17:22:01.624Z,88.30
2022-10-10T17:24:28.940Z,88.70
2022-10-10T17:26:56.251Z,89.00
2022-10-10T17:29:23.651Z,89.20
2022-10-10T17:31:50.993Z,89.50
2022-10-10T17:34:18.366Z,90.00
2022-10-10T17:36:45.724Z,90.10
2022-10-10T17:39:13.056Z,90.10
2022-10-10T17:41:40.718Z,90.20
2022-10-10T17:44:10.854Z,90.30
2022-10-10T17:46:39.010Z,90.50
2022-10-10T17:49:08.660Z,90.70
2022-10-10T17:51:37.545Z,90.80
2022-10-10T17:54:06.548Z,90.90
2022-10-10T17:56:35.410Z,91.20
2022-10-10T17:59:06.369Z,91.20
2022-10-10T18:01:35.393Z,91.50
2022-10-10T18:04:02.917Z,91.70
2022-10-10T18:06:35.906Z,92.10
2022-10-10T18:09:03.512Z,92.60
2022-10-10T18:11:31.889Z,92.70
2022-10-10T18:14:02.264Z,93.10
2022-10-10T18:16:35.502Z,93.30
2022-10-10T18:19:07.430Z,93.40
2022-10-10T18:21:35.127Z,93.60
2022-10-10T18:24:02.894Z,93.60
2022-10-10T18:26:30.893Z,93.80
2022-10-10T18:28:59.166Z,94.00
2022-10-10T18:31:30.159Z,94.10
2022-10-10T18:33:57.734Z,94.50
2022-10-10T18:36:27.403Z,94.70
2022-10-10T18:38:58.414Z,94.70
2022-10-10T18:41:32.695Z,94.90
2022-10-10T18:44:04.260Z,95.00
2022-10-10T18:46:32.175Z,94.90
2022-10-10T18:49:01.117Z,94.70
2022-10-10T18:51:29.674Z,94.80
2022-10-10T18:54:03.976Z,94.70
2022-10-10T18:56:32.982Z,95.00
2022-10-10T18:59:03.318Z,94.80
2022-10-10T19:01:36.272Z,94.80
2022-10-10T19:04:06.473Z,94.50
2022-10-10T19:06:35.366Z,94.20
2022-10-10T19:09:05.225Z,94.10
2022-10-10T19:11:34.786Z,94.00
2022-10-10T19:14:04.652Z,94.00
2022-10-10T19:16:33.734Z,94.00
2022-10-10T19:19:03.797Z,94.10
2022-10-10T19:21:35.307Z,94.00
2022-10-10T19:24:06.098Z,93.90
2022-10-10T19:26:34.079Z,93.70
2022-10-10T19:29:07.346Z,93.70
2022-10-10T19:31:36.169Z,93.80
2022-10-10T19:34:04.313Z,94.00
2022-10-10T19:36:31.676Z,94.00
2022-10-10T19:38:59.967Z,93.90
2022-10-10T19:41:27.596Z,94.00
2022-10-10T19:43:57.417Z,94.10
2022-10-10T19:46:26.886Z,94.30
2022-10-10T19:48:57.939Z,94.40
2022-10-10T19:51:27.180Z,94.30
2022-10-10T19:53:54.812Z,94.20
2022-10-10T19:56:26.828Z,94.00
2022-10-10T19:58:59.666Z,93.90
2022-10-10T20:01:29.919Z,93.90
2022-10-10T20:03:58.659Z,94.20
2022-10-10T20:06:27.454Z,94.50
2022-10-10T20:08:55.131Z,94.50
2022-10-10T20:11:23.578Z,94.80
2022-10-10T20:13:55.426Z,94.90
2022-10-10T20:16:23.890Z,95.10
2022-10-10T20:18:53.194Z,95.10
2022-10-10T20:21:25.266Z,95.00
2022-10-10T20:23:52.846Z,94.90
2022-10-10T20:26:22.148Z,95.10
2022-10-10T20:28:51.144Z,95.20
2022-10-10T20:31:20.105Z,95.10
2022-10-10T20:33:53.112Z,95.30
2022-10-10T20:36:21.794Z,95.40
2022-10-10T20:38:53.813Z,95.60
2022-10-10T20:41:23.134Z,95.50
2022-10-10T20:43:50.689Z,95.50
2022-10-10T20:46:18.001Z,95.60
2022-10-10T20:48:45.390Z,95.60
2022-10-10T20:51:14.001Z,95.50
2022-10-10T20:53:44.245Z,95.70
2022-10-10T20:56:12.815Z,95.80
2022-10-10T20:58:40.917Z,95.90
2022-10-10T21:01:17.451Z,95.90
2022-10-10T21:03:46.326Z,95.80
2022-10-10T21:06:17.588Z,96.00
2022-10-10T21:08:45.891Z,96.10
2022-10-10T21:11:15.507Z,96.10
2022-10-10T21:13:56.027Z,96.10
2022-10-10T21:16:38.534Z,96.10
2022-10-10T21:19:09.187Z,96.20
2022-10-10T21:21:37.650Z,96.30
2022-10-10T21:24:07.885Z,96.30
2022-10-10T21:26:35.649Z,96.30
2022-10-10T21:29:03.920Z,96.40
2022-10-10T21:31:34.254Z,96.50
2022-10-10T21:34:04.953Z,96.50
2022-10-10T21:36:33.462Z,96.60
2022-10-10T21:39:01.673Z,96.50
2022-10-10T21:41:29.104Z,96.60
2022-10-10T21:43:58.137Z,96.40
2022-10-10T21:46:29.159Z,96.70
2022-10-10T21:49:02.065Z,96.60
2022-10-10T21:51:30.202Z,96.60
2022-10-10T21:53:58.766Z,96.50
2022-10-10T21:56:26.193Z,96.50
2022-10-10T21:58:58.727Z,96.40
2022-10-10T22:01:33.061Z,96.50
2022-10-10T22:04:02.008Z,96.50
2022-10-10T22:06:30.027Z,96.40
2022-10-10T22:08:59.623Z,96.60
2022-10-10T22:11:28.947Z,96.50
2022-10-10T22:13:56.624Z,96.60
2022-10-10T22:16:24.481Z,96.70
2022-10-10T22:18:56.217Z,95.80
2022-10-10T22:21:28.042Z,96.30
2022-10-10T22:23:59.453Z,96.30
2022-10-10T22:26:26.753Z,96.30
2022-10-10T22:28:54.096Z,96.40
2022-10-10T22:31:21.509Z,96.40
2022-10-10T22:33:49.097Z,96.40
2022-10-10T22:36:16.382Z,96.40
2022-10-10T22:38:45.246Z,96.50
2022-10-10T22:41:14.170Z,96.50
2022-10-10T22:43:41.519Z,96.70
2022-10-10T22:46:09.164Z,96.40
2022-10-10T22:48:37.048Z,96.40
2022-10-10T22:51:11.266Z,96.40
2022-10-10T22:53:40.003Z,96.30
2022-10-10T22:56:08.461Z,96.30
2022-10-10T22:58:36.756Z,96.30
2022-10-10T23:01:13.226Z,96.30
2022-10-10T23:03:40.814Z,96.30
2022-10-10T23:06:09.346Z,96.30
2022-10-10T23:08:37.975Z,96.20
2022-10-10T23:11:06.679Z,96.20
2022-10-10T23:13:34.535Z,96.10
2022-10-10T23:16:02.299Z,96.10
2022-10-10T23:18:30.319Z,96.00
2022-10-10T23:20:59.217Z,95.80
2022-10-10T23:23:26.695Z,95.70
2022-10-10T23:25:54.893Z,95.60
2022-10-10T23:28:23.462Z,95.60
2022-10-10T23:30:50.886Z,95.30
2022-10-10T23:33:18.249Z,95.10
2022-10-10T23:35:57.296Z,94.80
2022-10-10T23:38:25.455Z,94.80
2022-10-10T23:40:53.207Z,94.70
2022-10-10T23:43:20.542Z,94.60
2022-10-10T23:45:48.336Z,94.70
2022-10-10T23:48:17.217Z,94.60
2022-10-10T23:50:45.089Z,94.60
2022-10-10T23:53:12.843Z,94.60
2022-10-10T23:55:41.609Z,94.70
2022-10-10T23:58:09.418Z,95.10
